createdAt,value
2023-02-22T00:02:11.180Z,16.73
2023-02-22T00:04:39.853Z,15.98
2023-02-22T00:07:07.412Z,18.30
2023-02-22T00:09:34.744Z,19.30
2023-02-22T00:12:02.361Z,16.92
2023-02-22T00:14:29.633Z,16.27
2023-02-22T00:16:59.603Z,22.15
2023-02-22T00:19:28.200Z,19.83
2023-02-22T00:21:55.498Z,25.65
2023-02-22T00:24:25.601Z,22.52
2023-02-22T00:26:55.701Z,20.42
2023-02-22T00:29:23.496Z,18.83
2023-02-22T00:31:50.969Z,22.52
2023-02-22T00:34:18.299Z,26.15
2023-02-22T00:36:46.784Z,27.75
2023-02-22T00:39:14.130Z,31.27
2023-02-22T00:41:41.508Z,30.27
2023-02-22T00:44:08.839Z,30.50
2023-02-22T00:46:36.146Z,25.95
2023-02-22T00:49:03.787Z,33.60
2023-02-22T00:51:31.060Z,32.08
2023-02-22T00:53:58.396Z,30.27
2023-02-22T00:56:25.692Z,29.20
2023-02-22T00:58:52.946Z,28.48
2023-02-22T01:01:20.834Z,27.40
2023-02-22T01:03:48.213Z,22.60
2023-02-22T01:06:15.652Z,24.70
2023-02-22T01:08:45.171Z,25.60
2023-02-22T01:11:12.938Z,19.38
2023-02-22T01:13:40.251Z,24.95
2023-02-22T01:16:08.763Z,24.30
2023-02-22T01:18:36.620Z,26.65
2023-02-22T01:21:08.635Z,24.65
2023-02-22T01:23:35.864Z,26.60
2023-02-22T01:26:05.805Z,22.80
2023-02-22T01:28:33.521Z,25.38
2023-02-22T01:31:01.686Z,24.35
2023-02-22T01:33:28.975Z,23.10
2023-02-22T01:35:56.206Z,24.80
2023-02-22T01:38:23.459Z,23.63
2023-02-22T01:40:51.729Z,20.02
2023-02-22T01:43:22.072Z,23.40
2023-02-22T01:46:01.382Z,28.00
2023-02-22T01:48:34.622Z,22.40
2023-02-22T01:51:01.835Z,17.60
2023-02-22T01:53:33.043Z,16.70
2023-02-22T01:56:01.196Z,18.50
2023-02-22T01:58:29.434Z,21.70
2023-02-22T02:00:57.789Z,17.60
2023-02-22T02:03:27.788Z,17.85
2023-02-22T02:05:57.033Z,16.58
2023-02-22T02:08:24.318Z,21.70
2023-02-22T02:10:51.643Z,21.25
2023-02-22T02:13:18.931Z,17.98
2023-02-22T02:15:46.203Z,16.65
2023-02-22T02:18:14.492Z,19.70
2023-02-22T02:20:47.517Z,17.48
2023-02-22T02:23:24.664Z,22.30
2023-02-22T02:26:09.972Z,15.13
2023-02-22T02:28:40.238Z,18.00
2023-02-22T02:31:13.215Z,18.42
2023-02-22T02:33:45.836Z,20.90
2023-02-22T02:36:22.841Z,16.83
2023-02-22T02:39:05.312Z,17.40
2023-02-22T02:41:37.842Z,19.10
2023-02-22T02:44:14.027Z,18.30
2023-02-22T02:46:45.735Z,20.17
2023-02-22T02:49:15.848Z,15.55
2023-02-22T02:51:47.067Z,20.67
2023-02-22T02:54:15.271Z,19.88
2023-02-22T02:56:45.690Z,17.02
2023-02-22T02:59:25.371Z,17.50
2023-02-22T03:01:55.364Z,18.90
2023-02-22T03:04:22.662Z,16.33
2023-02-22T03:06:59.215Z,19.60
2023-02-22T03:09:34.569Z,18.13
2023-02-22T03:14:39.219Z,17.88
2023-02-22T03:17:12.999Z,14.25
2023-02-22T03:19:40.215Z,14.23
2023-02-22T03:22:15.646Z,14.10
2023-02-22T03:25:12.329Z,16.65
2023-02-22T03:27:48.160Z,13.88
2023-02-22T03:30:19.449Z,14.15
2023-02-22T03:32:49.151Z,18.48
2023-02-22T03:35:19.945Z,18.70
2023-02-22T03:37:49.066Z,12.00
2023-02-22T03:40:17.980Z,14.90
2023-02-22T03:42:51.783Z,15.73
2023-02-22T03:45:21.297Z,16.80
2023-02-22T03:47:53.500Z,15.02
2023-02-22T03:50:26.731Z,14.80
2023-02-22T03:52:54.208Z,17.17
2023-02-22T03:55:21.667Z,17.20
2023-02-22T03:57:50.788Z,15.30
2023-02-22T04:00:20.613Z,14.57
2023-02-22T04:02:47.953Z,13.65
2023-02-22T04:05:15.358Z,13.90
2023-02-22T04:07:43.205Z,15.82
2023-02-22T04:10:11.385Z,16.40
2023-02-22T04:12:39.029Z,17.92
2023-02-22T04:15:07.084Z,14.82
2023-02-22T04:17:34.387Z,16.23
2023-02-22T04:20:01.706Z,15.30
2023-02-22T04:22:29.081Z,13.20
2023-02-22T04:24:56.370Z,15.32
2023-02-22T04:27:23.580Z,16.23
2023-02-22T04:29:50.927Z,16.70
2023-02-22T04:32:18.167Z,15.02
2023-02-22T04:34:45.411Z,12.40
2023-02-22T04:37:12.968Z,12.75
2023-02-22T04:39:40.224Z,13.40
2023-02-22T04:42:07.468Z,13.55
2023-02-22T04:44:34.693Z,14.77
2023-02-22T04:47:01.949Z,12.40
2023-02-22T04:49:29.211Z,13.10
2023-02-22T04:51:56.453Z,11.20
2023-02-22T04:54:23.720Z,10.00
2023-02-22T04:56:52.302Z,12.55
2023-02-22T04:59:19.902Z,13.93
2023-02-22T05:01:47.247Z,11.80
2023-02-22T05:04:14.533Z,11.40
2023-02-22T05:06:42.043Z,10.48
2023-02-22T05:09:09.283Z,10.20
2023-02-22T05:11:36.532Z,14.18
2023-02-22T05:14:03.741Z,15.13
2023-02-22T05:16:31.037Z,12.80
2023-02-22T05:18:58.354Z,12.18
2023-02-22T05:21:25.594Z,14.60
2023-02-22T05:23:52.818Z,13.05
2023-02-22T05:26:20.182Z,14.27
2023-02-22T05:28:47.446Z,13.25
2023-02-22T05:31:15.267Z,16.65
2023-02-22T05:33:43.164Z,12.23
2023-02-22T05:36:10.877Z,14.13
2023-02-22T05:38:43.593Z,13.00
2023-02-22T05:41:12.297Z,14.07
2023-02-22T05:43:40.263Z,14.48
2023-02-22T05:46:07.598Z,13.13
2023-02-22T05:48:35.291Z,16.40
2023-02-22T05:51:02.878Z,11.02
2023-02-22T05:53:30.136Z,18.00
2023-02-22T05:55:57.377Z,13.30
2023-02-22T05:58:24.652Z,13.93
2023-02-22T06:00:51.926Z,14.27
2023-02-22T06:03:19.217Z,16.58
2023-02-22T06:05:46.480Z,14.82
2023-02-22T06:08:13.801Z,17.73
2023-02-22T06:10:41.053Z,15.52
2023-02-22T06:13:08.323Z,16.60
2023-02-22T06:15:35.560Z,15.40
2023-02-22T06:18:03.296Z,13.30
2023-02-22T06:20:31.139Z,15.35
2023-02-22T06:22:59.322Z,15.68
2023-02-22T06:25:28.392Z,11.93
2023-02-22T06:27:55.640Z,12.77
2023-02-22T06:30:24.296Z,15.80
2023-02-22T06:32:51.599Z,14.88
2023-02-22T06:35:19.381Z,13.95
2023-02-22T06:37:46.614Z,12.93
2023-02-22T06:40:14.196Z,13.55
2023-02-22T06:42:41.933Z,11.68
2023-02-22T06:45:09.934Z,11.05
2023-02-22T06:47:44.075Z,13.48
2023-02-22T06:50:20.162Z,11.77
2023-02-22T06:52:48.215Z,11.90
2023-02-22T06:55:23.058Z,13.80
2023-02-22T06:57:50.528Z,13.88
2023-02-22T07:00:19.066Z,16.73
2023-02-22T07:02:48.435Z,42.28
2023-02-22T07:05:17.241Z,16.85
2023-02-22T07:07:44.523Z,15.40
2023-02-22T07:10:32.086Z,13.35
2023-02-22T07:12:59.353Z,13.80
2023-02-22T07:15:28.029Z,10.73
2023-02-22T07:17:55.605Z,11.57
2023-02-22T07:20:24.587Z,11.55
2023-02-22T07:22:52.017Z,12.32
2023-02-22T07:25:19.830Z,13.07
2023-02-22T07:27:47.318Z,12.95
2023-02-22T07:30:25.373Z,11.40
2023-02-22T07:32:54.077Z,10.73
2023-02-22T07:35:22.990Z,13.85
2023-02-22T07:37:50.311Z,11.93
2023-02-22T07:40:18.212Z,11.50
2023-02-22T07:42:52.299Z,14.23
2023-02-22T07:45:19.850Z,12.88
2023-02-22T07:47:48.417Z,10.25
2023-02-22T07:50:16.574Z,10.68
2023-02-22T07:52:50.895Z,10.00
2023-02-22T07:55:19.925Z,10.38
2023-02-22T07:57:47.780Z,9.88
2023-02-22T08:00:16.456Z,11.15
2023-02-22T08:02:44.243Z,11.40
2023-02-22T08:05:12.994Z,11.63
2023-02-22T08:07:40.778Z,9.23
2023-02-22T08:10:08.744Z,11.15
2023-02-22T08:12:36.433Z,7.68
2023-02-22T08:15:04.891Z,17.30
2023-02-22T08:17:32.165Z,12.95
2023-02-22T08:19:59.531Z,10.43
2023-02-22T08:22:29.113Z,12.68
2023-02-22T08:24:56.381Z,19.70
2023-02-22T08:27:25.541Z,12.43
2023-02-22T08:29:53.086Z,10.93
2023-02-22T08:32:20.973Z,11.45
2023-02-22T08:34:48.516Z,7.57
2023-02-22T08:37:18.621Z,14.30
2023-02-22T08:39:45.939Z,12.25
2023-02-22T08:42:13.272Z,26.02
2023-02-22T08:44:40.902Z,12.50
2023-02-22T08:47:08.247Z,9.13
2023-02-22T08:49:35.593Z,17.77
2023-02-22T08:52:02.898Z,12.38
2023-02-22T08:54:30.216Z,46.70
2023-02-22T08:56:57.529Z,20.45
2023-02-22T08:59:24.852Z,10.55
2023-02-22T09:01:52.554Z,11.70
2023-02-22T09:04:19.848Z,12.20
2023-02-22T09:06:51.833Z,24.05
2023-02-22T09:09:21.434Z,10.68
2023-02-22T09:11:50.956Z,10.05
2023-02-22T09:14:19.424Z,7.43
2023-02-22T09:16:46.673Z,9.32
2023-02-22T09:19:14.023Z,8.73
2023-02-22T09:21:41.771Z,10.82
2023-02-22T09:24:09.120Z,11.75
2023-02-22T09:26:39.472Z,9.30
2023-02-22T09:29:09.864Z,12.73
2023-02-22T09:31:38.010Z,9.73
2023-02-22T09:34:13.846Z,10.65
2023-02-22T09:36:46.760Z,13.90
2023-02-22T09:39:15.550Z,10.57
2023-02-22T09:42:01.770Z,10.25
2023-02-22T09:44:36.332Z,10.25
2023-02-22T09:47:05.012Z,10.73
2023-02-22T09:49:38.228Z,9.88
2023-02-22T09:52:11.660Z,10.95
2023-02-22T09:54:40.152Z,12.07
2023-02-22T09:57:13.904Z,13.02
2023-02-22T09:59:47.086Z,14.80
2023-02-22T10:02:34.226Z,14.60
2023-02-22T10:05:06.415Z,14.82
2023-02-22T10:07:37.124Z,12.40
2023-02-22T10:10:06.740Z,11.60
2023-02-22T10:12:34.007Z,9.23
2023-02-22T10:15:21.467Z,8.82
2023-02-22T10:18:24.048Z,11.73
2023-02-22T10:20:51.244Z,11.77
2023-02-22T10:23:30.656Z,11.45
2023-02-22T10:26:05.337Z,11.13
2023-02-22T10:28:38.355Z,9.77
2023-02-22T10:31:08.253Z,10.45
2023-02-22T10:33:56.480Z,13.23
2023-02-22T10:36:24.721Z,10.05
2023-02-22T10:38:55.326Z,10.00
2023-02-22T10:41:42.807Z,9.60
2023-02-22T10:44:10.113Z,12.75
2023-02-22T10:46:37.944Z,9.95
2023-02-22T10:49:07.566Z,12.65
2023-02-22T10:51:35.327Z,14.85
2023-02-22T10:54:14.975Z,12.93
2023-02-22T10:56:49.369Z,12.68
2023-02-22T10:59:32.880Z,12.87
2023-02-22T11:02:00.662Z,10.15
2023-02-22T11:04:28.044Z,10.75
2023-02-22T11:07:01.487Z,11.02
2023-02-22T11:09:29.364Z,11.15
2023-02-22T11:12:10.378Z,12.23
2023-02-22T11:14:39.270Z,8.38
2023-02-22T11:17:10.806Z,12.38
2023-02-22T11:19:39.208Z,11.07
2023-02-22T11:22:06.417Z,10.85
2023-02-22T11:24:48.520Z,11.10
2023-02-22T11:27:25.433Z,9.45
2023-02-22T11:29:53.239Z,12.63
2023-02-22T11:32:22.640Z,9.93
2023-02-22T11:35:03.425Z,9.98
2023-02-22T11:37:36.711Z,9.90
2023-02-22T11:40:07.107Z,12.25
2023-02-22T11:42:34.394Z,11.70
2023-02-22T11:45:12.856Z,10.20
2023-02-22T11:47:49.218Z,10.18
2023-02-22T11:50:28.105Z,11.85
2023-02-22T11:53:07.415Z,11.10
2023-02-22T11:55:49.780Z,13.10
2023-02-22T11:58:26.659Z,9.80
2023-02-22T12:00:57.449Z,11.43
2023-02-22T12:03:43.689Z,13.07
2023-02-22T12:06:16.729Z,11.80
2023-02-22T12:09:03.066Z,9.85
2023-02-22T12:11:33.348Z,12.20
2023-02-22T12:14:05.759Z,12.85
2023-02-22T12:16:33.056Z,13.10
2023-02-22T12:19:03.332Z,11.18
2023-02-22T12:21:32.355Z,11.00
2023-02-22T12:24:03.504Z,14.50
2023-02-22T12:26:33.206Z,10.15
2023-02-22T12:29:38.990Z,11.82
2023-02-22T12:32:12.469Z,11.48
2023-02-22T12:34:43.470Z,16.40
2023-02-22T12:37:10.742Z,10.15
2023-02-22T12:40:00.211Z,14.10
2023-02-22T12:42:34.734Z,12.23
2023-02-22T12:45:10.425Z,9.65
2023-02-22T12:47:41.698Z,11.27
2023-02-22T12:50:19.634Z,11.70
2023-02-22T12:52:57.892Z,9.55
2023-02-22T12:55:27.203Z,11.52
2023-02-22T12:58:08.246Z,10.13
2023-02-22T13:00:35.495Z,11.95
2023-02-22T13:03:02.805Z,11.75
2023-02-22T13:05:34.876Z,10.57
2023-02-22T13:08:18.446Z,11.90
2023-02-22T13:10:58.570Z,9.73
2023-02-22T13:13:33.206Z,11.00
2023-02-22T13:16:16.090Z,15.00
2023-02-22T13:18:52.896Z,10.77
2023-02-22T13:21:35.467Z,11.05
2023-02-22T13:24:21.738Z,10.50
2023-02-22T13:26:54.615Z,11.48
2023-02-22T13:29:28.509Z,8.95
2023-02-22T13:32:03.286Z,10.82
2023-02-22T13:34:31.064Z,12.63
2023-02-22T13:37:06.951Z,13.02
2023-02-22T13:39:54.790Z,10.27
2023-02-22T13:42:22.631Z,10.07
2023-02-22T13:44:52.933Z,11.70
2023-02-22T13:47:33.416Z,11.85
2023-02-22T13:50:06.684Z,10.38
2023-02-22T13:52:35.181Z,11.32
2023-02-22T13:55:05.043Z,10.18
2023-02-22T13:57:39.459Z,12.50
2023-02-22T14:00:15.753Z,10.77
2023-02-22T14:02:58.384Z,9.98
2023-02-22T14:05:44.782Z,10.80
2023-02-22T14:08:15.322Z,10.02
2023-02-22T14:10:56.469Z,9.77
2023-02-22T14:13:26.884Z,10.30
2023-02-22T14:16:00.347Z,9.82
2023-02-22T14:18:31.936Z,10.20
2023-02-22T14:21:08.056Z,9.48
2023-02-22T14:23:40.476Z,8.88
2023-02-22T14:26:11.245Z,10.93
2023-02-22T14:28:41.322Z,10.45
2023-02-22T14:31:33.351Z,8.65
2023-02-22T14:34:20.251Z,9.88
2023-02-22T14:36:56.877Z,9.82
2023-02-22T14:39:33.294Z,9.90
2023-02-22T14:42:03.324Z,9.60
2023-02-22T14:44:53.861Z,9.95
2023-02-22T14:47:54.493Z,10.85
2023-02-22T14:50:24.923Z,9.02
2023-02-22T14:53:07.050Z,7.78
2023-02-22T14:55:38.549Z,8.82
2023-02-22T14:58:06.098Z,9.50
2023-02-22T15:00:46.067Z,8.75
2023-02-22T15:03:33.691Z,9.38
2023-02-22T15:06:08.321Z,6.97
2023-02-22T15:08:41.748Z,9.30
2023-02-22T15:11:26.492Z,9.50
2023-02-22T15:13:55.304Z,9.18
2023-02-22T15:16:23.695Z,9.55
2023-02-22T15:18:54.341Z,9.73
2023-02-22T15:21:23.568Z,7.97
2023-02-22T15:23:50.829Z,11.25
2023-02-22T15:26:18.997Z,8.80
2023-02-22T15:28:46.392Z,7.10
2023-02-22T15:31:24.993Z,8.05
2023-02-22T15:33:55.889Z,8.05
2023-02-22T15:36:26.433Z,11.50
2023-02-22T15:38:55.936Z,7.50
2023-02-22T15:41:27.995Z,7.75
2023-02-22T15:44:01.786Z,9.68
2023-02-22T15:46:31.208Z,11.68
2023-02-22T15:49:05.338Z,9.05
2023-02-22T15:51:33.663Z,11.60
2023-02-22T15:54:18.353Z,10.65
2023-02-22T15:56:57.052Z,8.05
2023-02-22T15:59:30.514Z,14.82
2023-02-22T16:01:58.931Z,8.90
2023-02-22T16:04:28.061Z,9.15
2023-02-22T16:07:03.875Z,7.78
2023-02-22T16:09:33.243Z,9.60
2023-02-22T16:12:11.460Z,8.02
2023-02-22T16:14:38.727Z,8.57
2023-02-22T16:17:12.161Z,7.53
2023-02-22T16:19:42.329Z,10.70
2023-02-22T16:22:26.861Z,7.80
2023-02-22T16:24:54.689Z,13.32
2023-02-22T16:27:23.863Z,8.65
2023-02-22T16:30:18.710Z,7.38
2023-02-22T16:32:51.307Z,10.57
2023-02-22T16:35:18.666Z,10.13
2023-02-22T16:37:53.049Z,11.50
2023-02-22T16:40:23.332Z,13.23
2023-02-22T16:42:52.557Z,18.27
2023-02-22T16:45:20.412Z,15.82
2023-02-22T16:47:47.686Z,11.43
2023-02-22T16:50:17.367Z,16.10
2023-02-22T16:52:44.648Z,17.73
2023-02-22T16:55:13.833Z,13.80
2023-02-22T16:57:42.392Z,13.50
2023-02-22T17:00:13.533Z,10.38
2023-02-22T17:02:40.907Z,33.08
2023-02-22T17:05:08.350Z,19.15
2023-02-22T17:07:35.644Z,15.40
2023-02-22T17:10:02.861Z,15.45
2023-02-22T17:12:32.209Z,21.80
2023-02-22T17:14:59.495Z,18.35
2023-02-22T17:17:26.901Z,17.27
2023-02-22T17:19:55.047Z,13.35
2023-02-22T17:22:23.276Z,14.18
2023-02-22T17:24:50.548Z,21.55
2023-02-22T17:27:17.766Z,19.88
2023-02-22T17:29:45.295Z,16.30
2023-02-22T17:32:13.177Z,15.52
2023-02-22T17:34:40.832Z,19.00
2023-02-22T17:37:08.150Z,19.80
2023-02-22T17:39:35.431Z,18.40
2023-02-22T17:42:02.703Z,16.55
2023-02-22T17:44:30.239Z,16.10
2023-02-22T17:46:57.546Z,18.95
2023-02-22T17:49:24.887Z,14.52
2023-02-22T17:51:53.242Z,56.08
2023-02-22T17:54:20.776Z,32.60
2023-02-22T17:56:47.988Z,17.48
2023-02-22T17:59:15.335Z,11.70
2023-02-22T18:01:44.108Z,24.15
2023-02-22T18:04:11.822Z,39.92
2023-02-22T18:06:40.164Z,22.95
2023-02-22T18:09:10.839Z,15.80
2023-02-22T18:11:39.232Z,22.10
2023-02-22T18:14:10.103Z,12.60
2023-02-22T18:16:38.974Z,12.10
2023-02-22T18:19:06.408Z,10.48
2023-02-22T18:21:33.678Z,10.40
2023-02-22T18:24:01.020Z,11.65
2023-02-22T18:26:29.164Z,11.05
2023-02-22T18:28:56.698Z,12.18
2023-02-22T18:31:24.434Z,10.07
2023-02-22T18:33:52.653Z,9.57
2023-02-22T18:36:23.674Z,11.40
2023-02-22T18:38:52.565Z,8.50
2023-02-22T18:41:20.824Z,10.82
2023-02-22T18:43:48.075Z,12.07
2023-02-22T18:46:18.343Z,11.70
2023-02-22T18:48:46.494Z,10.73
2023-02-22T18:51:14.359Z,12.98
2023-02-22T18:53:47.152Z,16.20
2023-02-22T18:56:16.605Z,13.32
2023-02-22T18:58:44.126Z,11.95
2023-02-22T19:01:15.794Z,12.77
2023-02-22T19:03:43.089Z,13.73
2023-02-22T19:06:10.737Z,12.75
2023-02-22T19:08:42.690Z,11.20
2023-02-22T19:11:11.282Z,10.70
2023-02-22T19:13:38.674Z,11.38
2023-02-22T19:16:07.432Z,11.15
2023-02-22T19:18:35.020Z,12.95
2023-02-22T19:21:02.955Z,15.77
2023-02-22T19:23:34.965Z,12.30
2023-02-22T19:26:03.550Z,16.83
2023-02-22T19:28:36.907Z,16.98
2023-02-22T19:31:31.638Z,20.05
2023-02-22T19:34:19.626Z,16.60
2023-02-22T19:36:47.443Z,17.50
2023-02-22T19:39:15.375Z,18.05
2023-02-22T19:41:42.663Z,17.88
2023-02-22T19:44:10.200Z,15.82
2023-02-22T19:46:37.972Z,14.88
2023-02-22T19:49:05.537Z,14.90
2023-02-22T19:51:33.475Z,12.30
2023-02-22T19:54:02.662Z,10.68
2023-02-22T19:56:31.241Z,15.32
2023-02-22T19:59:00.364Z,13.50
2023-02-22T20:01:29.930Z,17.45
2023-02-22T20:04:00.018Z,13.68
2023-02-22T20:06:29.259Z,13.18
2023-02-22T20:08:57.294Z,14.65
2023-02-22T20:11:25.002Z,16.35
2023-02-22T20:13:52.304Z,13.85
2023-02-22T20:16:19.660Z,17.27
2023-02-22T20:18:47.396Z,18.67
2023-02-22T20:21:19.723Z,16.13
2023-02-22T20:23:47.296Z,16.42
2023-02-22T20:26:16.043Z,18.15
2023-02-22T20:28:43.359Z,14.63
2023-02-22T20:31:13.778Z,16.02
2023-02-22T20:33:41.946Z,15.23
2023-02-22T20:36:13.531Z,14.30
2023-02-22T20:38:41.205Z,19.65
2023-02-22T20:41:09.282Z,15.93
2023-02-22T20:43:36.763Z,14.15
2023-02-22T20:46:05.494Z,11.80
2023-02-22T20:48:33.044Z,12.15
2023-02-22T20:51:07.173Z,14.02
2023-02-22T20:53:35.439Z,14.73
2023-02-22T20:56:02.901Z,13.90
2023-02-22T20:58:30.155Z,12.75
2023-02-22T21:00:57.444Z,16.27
2023-02-22T21:03:27.452Z,13.55
2023-02-22T21:05:54.705Z,11.98
2023-02-22T21:08:22.007Z,15.57
2023-02-22T21:10:49.326Z,12.50
2023-02-22T21:13:16.567Z,13.00
2023-02-22T21:15:43.838Z,13.05
2023-02-22T21:18:11.594Z,10.23
2023-02-22T21:20:41.059Z,10.75
2023-02-22T21:23:08.556Z,10.25
2023-02-22T21:25:35.978Z,9.63
2023-02-22T21:28:03.243Z,9.27
2023-02-22T21:30:30.725Z,10.80
2023-02-22T21:32:58.020Z,11.68
2023-02-22T21:35:25.586Z,10.63
2023-02-22T21:37:52.928Z,11.48
2023-02-22T21:40:20.557Z,11.23
2023-02-22T21:42:49.056Z,12.48
2023-02-22T21:45:18.586Z,10.77
2023-02-22T21:47:46.497Z,10.25
2023-02-22T21:50:21.000Z,16.67
2023-02-22T21:52:48.890Z,9.20
2023-02-22T21:55:16.417Z,14.48
2023-02-22T21:57:43.633Z,11.63
2023-02-22T22:00:17.672Z,16.27
2023-02-22T22:02:48.464Z,11.30
2023-02-22T22:05:18.135Z,13.07
2023-02-22T22:07:45.417Z,13.68
2023-02-22T22:10:17.936Z,14.45
2023-02-22T22:12:46.281Z,17.77
2023-02-22T22:15:16.448Z,14.20
2023-02-22T22:17:44.498Z,13.23
2023-02-22T22:20:14.860Z,13.85
2023-02-22T22:22:43.648Z,12.82
2023-02-22T22:25:11.996Z,12.80
2023-02-22T22:27:39.780Z,12.35
2023-02-22T22:30:08.201Z,10.98
2023-02-22T22:32:35.561Z,11.57
2023-02-22T22:35:04.736Z,12.70
2023-02-22T22:37:32.145Z,11.35
2023-02-22T22:39:59.441Z,11.27
2023-02-22T22:42:26.926Z,12.38
2023-02-22T22:44:54.366Z,9.20
2023-02-22T22:47:21.716Z,9.27
2023-02-22T22:49:50.378Z,11.18
2023-02-22T22:52:19.141Z,15.23
2023-02-22T22:54:46.364Z,15.10
2023-02-22T22:57:13.731Z,12.27
2023-02-22T22:59:41.040Z,12.55
2023-02-22T23:02:11.045Z,12.95
2023-02-22T23:04:38.314Z,15.93
2023-02-22T23:07:06.708Z,13.68
2023-02-22T23:09:39.050Z,10.23
2023-02-22T23:12:09.443Z,11.48
2023-02-22T23:14:44.229Z,12.45
2023-02-22T23:17:16.351Z,9.77
2023-02-22T23:19:45.446Z,9.05
2023-02-22T23:22:15.716Z,9.45
2023-02-22T23:24:44.781Z,8.88
2023-02-22T23:27:12.431Z,12.23
2023-02-22T23:29:40.408Z,9.35
2023-02-22T23:32:08.877Z,8.55
2023-02-22T23:34:37.071Z,9.82
2023-02-22T23:37:06.407Z,9.88
2023-02-22T23:39:33.631Z,8.02
2023-02-22T23:42:00.918Z,11.07
2023-02-22T23:44:28.385Z,12.13
2023-02-22T23:46:56.073Z,11.10
2023-02-22T23:49:27.327Z,12.13
2023-02-22T23:51:54.848Z,10.45
2023-02-22T23:54:25.425Z,10.23
2023-02-22T23:57:02.515Z,8.50
2023-02-22T23:59:30.695Z,12.70
